Terminal Aerodrome Forecast
Issued by NWS

Home | Current Version | Previous Version | Text Only | Print | Product List | Glossary On
Versions: 1 2 3 4 5 6 7 8 9 10 11 12 13 14 15 16 17 18 19 20 21 22 23 24 25 26 27 28
766
FTUS43 KDLH 280124 AAA
TAFHIB
TAF AMD
KHIB 280124Z 2801/2824 13005KT P6SM BKN050
      TEMPO 2801/2804 6SM -SHRA BR BKN020 OVC050
     FM280400 00000KT P6SM VCSH SCT020 BKN040
     FM280600 00000KT 4SM BR SCT010
     FM280800 00000KT 1SM BR VCSH SCT001
      TEMPO 2808/2812 1/2SM FG OVC002
     FM281400 16005KT P6SM SCT020
     FM281800 17007KT P6SM BKN040=

USA.gov is the U.S. government's official web portal to all federal, state and local government web resources and services.